sensor_id;sensor_type;location;lat;lon;timestamp;P1;durP1;ratioP1;P2;durP2;ratioP2
20725;SDS011;10524;48.132;8.518;2023-07-16T00:02:03;2.42;;;2.08;;
20725;SDS011;10524;48.132;8.518;2023-07-16T00:04:30;2.05;;;1.80;;
20725;SDS011;10524;48.132;8.518;2023-07-16T00:06:56;2.00;;;1.80;;
20725;SDS011;10524;48.132;8.518;2023-07-16T00:09:22;3.30;;;2.03;;
20725;SDS011;10524;48.132;8.518;2023-07-16T00:11:49;2.58;;;2.30;;
20725;SDS011;10524;48.132;8.518;2023-07-16T00:14:14;2.58;;;2.00;;
20725;SDS011;10524;48.132;8.518;2023-07-16T00:16:40;2.45;;;2.10;;
20725;SDS011;10524;48.132;8.518;2023-07-16T00:19:05;1.90;;;1.70;;
20725;SDS011;10524;48.132;8.518;2023-07-16T00:21:31;2.10;;;1.73;;
20725;SDS011;10524;48.132;8.518;2023-07-16T00:23:57;2.15;;;1.90;;
20725;SDS011;10524;48.132;8.518;2023-07-16T00:26:22;1.90;;;1.70;;
20725;SDS011;10524;48.132;8.518;2023-07-16T00:28:48;2.45;;;1.77;;
20725;SDS011;10524;48.132;8.518;2023-07-16T00:31:14;2.65;;;1.75;;
20725;SDS011;10524;48.132;8.518;2023-07-16T00:33:39;1.77;;;1.50;;
20725;SDS011;10524;48.132;8.518;2023-07-16T00:36:05;1.80;;;1.70;;
20725;SDS011;10524;48.132;8.518;2023-07-16T00:38:30;1.98;;;1.50;;
20725;SDS011;10524;48.132;8.518;2023-07-16T00:40:56;2.08;;;1.63;;
20725;SDS011;10524;48.132;8.518;2023-07-16T00:43:22;2.55;;;1.73;;
20725;SDS011;10524;48.132;8.518;2023-07-16T00:45:47;2.45;;;1.85;;
20725;SDS011;10524;48.132;8.518;2023-07-16T00:48:14;3.83;;;1.80;;
20725;SDS011;10524;48.132;8.518;2023-07-16T00:50:40;2.50;;;1.90;;
20725;SDS011;10524;48.132;8.518;2023-07-16T00:53:06;1.95;;;1.75;;
20725;SDS011;10524;48.132;8.518;2023-07-16T00:55:33;3.40;;;1.75;;
20725;SDS011;10524;48.132;8.518;2023-07-16T00:58:01;3.30;;;2.00;;
20725;SDS011;10524;48.132;8.518;2023-07-16T01:00:30;2.33;;;2.10;;
20725;SDS011;10524;48.132;8.518;2023-07-16T01:02:57;2.25;;;1.90;;
20725;SDS011;10524;48.132;8.518;2023-07-16T01:05:22;2.22;;;2.03;;
20725;SDS011;10524;48.132;8.518;2023-07-16T01:07:55;2.95;;;1.92;;
20725;SDS011;10524;48.132;8.518;2023-07-16T01:10:23;2.15;;;1.90;;
20725;SDS011;10524;48.132;8.518;2023-07-16T01:12:51;3.05;;;2.20;;
20725;SDS011;10524;48.132;8.518;2023-07-16T01:15:19;2.58;;;2.00;;
20725;SDS011;10524;48.132;8.518;2023-07-16T01:17:45;2.22;;;2.03;;
20725;SDS011;10524;48.132;8.518;2023-07-16T01:20:11;3.28;;;2.13;;
20725;SDS011;10524;48.132;8.518;2023-07-16T01:31:25;2.45;;;2.10;;
20725;SDS011;10524;48.132;8.518;2023-07-16T01:33:52;3.47;;;2.20;;
20725;SDS011;10524;48.132;8.518;2023-07-16T01:36:21;2.35;;;2.13;;
20725;SDS011;10524;48.132;8.518;2023-07-16T01:38:48;2.42;;;2.20;;
20725;SDS011;10524;48.132;8.518;2023-07-16T01:41:14;2.45;;;2.22;;
20725;SDS011;10524;48.132;8.518;2023-07-16T01:43:39;2.70;;;2.50;;
20725;SDS011;10524;48.132;8.518;2023-07-16T01:46:05;2.88;;;2.20;;
20725;SDS011;10524;48.132;8.518;2023-07-16T01:48:32;2.50;;;2.25;;
20725;SDS011;10524;48.132;8.518;2023-07-16T01:50:59;2.40;;;2.20;;
20725;SDS011;10524;48.132;8.518;2023-07-16T01:53:25;5.03;;;2.30;;
20725;SDS011;10524;48.132;8.518;2023-07-16T01:55:50;2.55;;;2.30;;
20725;SDS011;10524;48.132;8.518;2023-07-16T01:58:16;3.10;;;2.20;;
20725;SDS011;10524;48.132;8.518;2023-07-16T02:00:42;3.55;;;2.17;;
20725;SDS011;10524;48.132;8.518;2023-07-16T02:03:08;2.60;;;2.40;;
20725;SDS011;10524;48.132;8.518;2023-07-16T02:05:33;2.38;;;2.17;;
20725;SDS011;10524;48.132;8.518;2023-07-16T02:07:59;3.22;;;2.20;;
20725;SDS011;10524;48.132;8.518;2023-07-16T02:10:24;3.17;;;2.20;;
20725;SDS011;10524;48.132;8.518;2023-07-16T02:12:50;2.92;;;2.20;;
20725;SDS011;10524;48.132;8.518;2023-07-16T02:15:16;4.18;;;2.38;;
20725;SDS011;10524;48.132;8.518;2023-07-16T02:17:43;4.03;;;2.67;;
20725;SDS011;10524;48.132;8.518;2023-07-16T02:20:09;2.70;;;2.20;;
20725;SDS011;10524;48.132;8.518;2023-07-16T02:22:38;4.57;;;2.40;;
20725;SDS011;10524;48.132;8.518;2023-07-16T02:25:04;3.55;;;2.42;;
20725;SDS011;10524;48.132;8.518;2023-07-16T02:27:30;2.85;;;2.17;;
20725;SDS011;10524;48.132;8.518;2023-07-16T02:29:56;3.08;;;2.03;;
20725;SDS011;10524;48.132;8.518;2023-07-16T02:32:22;4.05;;;2.05;;
20725;SDS011;10524;48.132;8.518;2023-07-16T02:34:48;2.45;;;2.05;;
20725;SDS011;10524;48.132;8.518;2023-07-16T02:37:13;2.30;;;1.98;;
20725;SDS011;10524;48.132;8.518;2023-07-16T02:39:40;3.17;;;2.00;;
20725;SDS011;10524;48.132;8.518;2023-07-16T02:42:07;2.63;;;2.13;;
20725;SDS011;10524;48.132;8.518;2023-07-16T02:44:33;2.40;;;2.10;;
20725;SDS011;10524;48.132;8.518;2023-07-16T02:47:01;3.53;;;2.10;;
20725;SDS011;10524;48.132;8.518;2023-07-16T02:49:26;3.33;;;2.20;;
20725;SDS011;10524;48.132;8.518;2023-07-16T02:51:52;2.28;;;1.88;;
20725;SDS011;10524;48.132;8.518;2023-07-16T02:54:17;2.88;;;1.95;;
20725;SDS011;10524;48.132;8.518;2023-07-16T02:56:43;2.63;;;2.00;;
20725;SDS011;10524;48.132;8.518;2023-07-16T02:59:08;3.20;;;2.40;;
20725;SDS011;10524;48.132;8.518;2023-07-16T03:01:34;3.15;;;1.95;;
20725;SDS011;10524;48.132;8.518;2023-07-16T03:04:00;2.83;;;2.00;;
20725;SDS011;10524;48.132;8.518;2023-07-16T03:06:25;1.80;;;1.70;;
20725;SDS011;10524;48.132;8.518;2023-07-16T03:08:54;2.28;;;1.80;;
20725;SDS011;10524;48.132;8.518;2023-07-16T03:11:19;2.38;;;1.90;;
20725;SDS011;10524;48.132;8.518;2023-07-16T03:13:45;2.95;;;1.90;;
20725;SDS011;10524;48.132;8.518;2023-07-16T03:16:11;3.17;;;1.90;;
20725;SDS011;10524;48.132;8.518;2023-07-16T03:18:36;2.55;;;1.63;;
20725;SDS011;10524;48.132;8.518;2023-07-16T03:21:02;3.05;;;1.80;;
20725;SDS011;10524;48.132;8.518;2023-07-16T03:23:28;3.83;;;1.60;;
20725;SDS011;10524;48.132;8.518;2023-07-16T03:25:53;3.15;;;2.10;;
20725;SDS011;10524;48.132;8.518;2023-07-16T03:28:19;3.33;;;1.83;;
20725;SDS011;10524;48.132;8.518;2023-07-16T03:30:47;2.47;;;1.83;;
20725;SDS011;10524;48.132;8.518;2023-07-16T03:33:14;5.68;;;2.10;;
20725;SDS011;10524;48.132;8.518;2023-07-16T03:35:42;2.63;;;1.70;;
20725;SDS011;10524;48.132;8.518;2023-07-16T03:38:08;3.35;;;1.80;;
20725;SDS011;10524;48.132;8.518;2023-07-16T03:40:35;2.95;;;1.77;;
20725;SDS011;10524;48.132;8.518;2023-07-16T03:43:00;3.47;;;2.30;;
20725;SDS011;10524;48.132;8.518;2023-07-16T03:45:26;3.70;;;1.85;;
20725;SDS011;10524;48.132;8.518;2023-07-16T03:47:51;4.10;;;2.03;;
20725;SDS011;10524;48.132;8.518;2023-07-16T03:50:17;2.17;;;1.80;;
20725;SDS011;10524;48.132;8.518;2023-07-16T03:52:43;3.85;;;2.05;;
20725;SDS011;10524;48.132;8.518;2023-07-16T03:55:09;3.78;;;1.70;;
20725;SDS011;10524;48.132;8.518;2023-07-16T03:57:35;2.30;;;1.63;;
20725;SDS011;10524;48.132;8.518;2023-07-16T04:00:01;3.25;;;2.03;;
20725;SDS011;10524;48.132;8.518;2023-07-16T04:02:29;3.35;;;1.73;;
20725;SDS011;10524;48.132;8.518;2023-07-16T04:04:54;3.08;;;1.60;;
20725;SDS011;10524;48.132;8.518;2023-07-16T04:07:20;3.78;;;1.88;;
20725;SDS011;10524;48.132;8.518;2023-07-16T04:09:46;2.75;;;1.52;;
20725;SDS011;10524;48.132;8.518;2023-07-16T04:12:11;4.22;;;1.88;;
20725;SDS011;10524;48.132;8.518;2023-07-16T04:14:37;3.47;;;1.70;;
20725;SDS011;10524;48.132;8.518;2023-07-16T04:17:03;3.58;;;1.70;;
20725;SDS011;10524;48.132;8.518;2023-07-16T04:19:29;3.22;;;1.80;;
20725;SDS011;10524;48.132;8.518;2023-07-16T04:21:55;4.25;;;2.08;;
20725;SDS011;10524;48.132;8.518;2023-07-16T04:24:20;4.55;;;2.05;;
20725;SDS011;10524;48.132;8.518;2023-07-16T04:26:46;4.05;;;1.75;;
20725;SDS011;10524;48.132;8.518;2023-07-16T04:29:11;4.20;;;2.05;;
20725;SDS011;10524;48.132;8.518;2023-07-16T04:31:37;4.47;;;2.00;;
20725;SDS011;10524;48.132;8.518;2023-07-16T04:34:03;5.32;;;1.80;;
20725;SDS011;10524;48.132;8.518;2023-07-16T04:36:28;4.53;;;1.85;;
20725;SDS011;10524;48.132;8.518;2023-07-16T04:38:54;2.83;;;1.70;;
20725;SDS011;10524;48.132;8.518;2023-07-16T04:41:19;2.42;;;1.70;;
20725;SDS011;10524;48.132;8.518;2023-07-16T04:43:45;3.05;;;1.90;;
20725;SDS011;10524;48.132;8.518;2023-07-16T04:46:11;2.33;;;1.70;;
20725;SDS011;10524;48.132;8.518;2023-07-16T04:48:37;4.75;;;2.03;;
20725;SDS011;10524;48.132;8.518;2023-07-16T04:51:02;4.60;;;2.10;;
20725;SDS011;10524;48.132;8.518;2023-07-16T04:53:28;3.63;;;1.90;;
20725;SDS011;10524;48.132;8.518;2023-07-16T04:55:53;6.57;;;2.00;;
20725;SDS011;10524;48.132;8.518;2023-07-16T04:58:19;3.30;;;2.00;;
20725;SDS011;10524;48.132;8.518;2023-07-16T05:00:45;4.85;;;1.80;;
20725;SDS011;10524;48.132;8.518;2023-07-16T05:03:10;3.65;;;1.65;;
20725;SDS011;10524;48.132;8.518;2023-07-16T05:05:36;4.97;;;2.17;;
20725;SDS011;10524;48.132;8.518;2023-07-16T05:08:02;5.40;;;1.83;;
20725;SDS011;10524;48.132;8.518;2023-07-16T05:10:27;3.90;;;1.70;;
20725;SDS011;10524;48.132;8.518;2023-07-16T05:12:53;4.78;;;1.90;;
20725;SDS011;10524;48.132;8.518;2023-07-16T05:15:19;5.75;;;1.90;;
20725;SDS011;10524;48.132;8.518;2023-07-16T05:17:45;3.08;;;1.70;;
20725;SDS011;10524;48.132;8.518;2023-07-16T05:20:10;2.83;;;1.73;;
20725;SDS011;10524;48.132;8.518;2023-07-16T05:22:36;2.95;;;1.77;;
20725;SDS011;10524;48.132;8.518;2023-07-16T05:25:02;2.30;;;1.45;;
20725;SDS011;10524;48.132;8.518;2023-07-16T05:27:28;2.97;;;1.60;;
20725;SDS011;10524;48.132;8.518;2023-07-16T05:29:53;3.65;;;1.73;;
20725;SDS011;10524;48.132;8.518;2023-07-16T05:32:19;4.22;;;2.00;;
20725;SDS011;10524;48.132;8.518;2023-07-16T05:34:45;6.93;;;2.15;;
20725;SDS011;10524;48.132;8.518;2023-07-16T05:37:11;7.68;;;2.45;;
20725;SDS011;10524;48.132;8.518;2023-07-16T05:39:37;6.35;;;1.90;;
20725;SDS011;10524;48.132;8.518;2023-07-16T05:42:03;4.88;;;1.92;;
20725;SDS011;10524;48.132;8.518;2023-07-16T05:44:29;3.67;;;1.85;;
20725;SDS011;10524;48.132;8.518;2023-07-16T05:46:55;4.55;;;2.10;;
20725;SDS011;10524;48.132;8.518;2023-07-16T05:49:20;6.05;;;1.80;;
20725;SDS011;10524;48.132;8.518;2023-07-16T05:51:46;4.15;;;2.00;;
20725;SDS011;10524;48.132;8.518;2023-07-16T05:54:12;4.82;;;1.80;;
20725;SDS011;10524;48.132;8.518;2023-07-16T05:56:38;5.10;;;2.47;;
20725;SDS011;10524;48.132;8.518;2023-07-16T05:59:03;5.53;;;2.40;;
20725;SDS011;10524;48.132;8.518;2023-07-16T06:01:29;4.28;;;2.00;;
20725;SDS011;10524;48.132;8.518;2023-07-16T06:03:54;5.70;;;2.42;;
20725;SDS011;10524;48.132;8.518;2023-07-16T06:06:20;6.65;;;2.55;;
20725;SDS011;10524;48.132;8.518;2023-07-16T06:08:46;4.63;;;2.50;;
20725;SDS011;10524;48.132;8.518;2023-07-16T06:11:12;7.97;;;2.38;;
20725;SDS011;10524;48.132;8.518;2023-07-16T06:13:38;4.82;;;2.25;;
20725;SDS011;10524;48.132;8.518;2023-07-16T06:16:03;4.88;;;2.10;;
20725;SDS011;10524;48.132;8.518;2023-07-16T06:18:29;4.85;;;2.10;;
20725;SDS011;10524;48.132;8.518;2023-07-16T06:20:55;6.63;;;2.28;;
20725;SDS011;10524;48.132;8.518;2023-07-16T06:23:20;4.13;;;2.08;;
20725;SDS011;10524;48.132;8.518;2023-07-16T06:25:46;3.88;;;2.00;;
20725;SDS011;10524;48.132;8.518;2023-07-16T06:28:13;4.47;;;1.70;;
20725;SDS011;10524;48.132;8.518;2023-07-16T06:30:39;6.28;;;2.10;;
20725;SDS011;10524;48.132;8.518;2023-07-16T06:33:05;3.20;;;1.80;;
20725;SDS011;10524;48.132;8.518;2023-07-16T06:35:31;4.43;;;1.80;;
20725;SDS011;10524;48.132;8.518;2023-07-16T06:37:57;6.60;;;1.90;;
20725;SDS011;10524;48.132;8.518;2023-07-16T06:40:23;3.92;;;1.90;;
20725;SDS011;10524;48.132;8.518;2023-07-16T06:42:50;3.97;;;1.80;;
20725;SDS011;10524;48.132;8.518;2023-07-16T06:45:17;4.63;;;2.08;;
20725;SDS011;10524;48.132;8.518;2023-07-16T06:47:42;4.57;;;1.80;;
20725;SDS011;10524;48.132;8.518;2023-07-16T06:50:08;4.90;;;1.90;;
20725;SDS011;10524;48.132;8.518;2023-07-16T06:52:34;3.80;;;1.80;;
20725;SDS011;10524;48.132;8.518;2023-07-16T06:55:00;3.08;;;1.60;;
20725;SDS011;10524;48.132;8.518;2023-07-16T06:57:26;4.97;;;1.67;;
20725;SDS011;10524;48.132;8.518;2023-07-16T06:59:51;4.72;;;1.63;;
20725;SDS011;10524;48.132;8.518;2023-07-16T07:02:18;3.65;;;1.95;;
20725;SDS011;10524;48.132;8.518;2023-07-16T07:04:44;4.50;;;1.52;;
20725;SDS011;10524;48.132;8.518;2023-07-16T07:07:10;4.68;;;1.60;;
20725;SDS011;10524;48.132;8.518;2023-07-16T07:09:36;4.30;;;1.90;;
20725;SDS011;10524;48.132;8.518;2023-07-16T07:12:02;3.92;;;1.70;;
20725;SDS011;10524;48.132;8.518;2023-07-16T07:14:28;2.83;;;1.70;;
20725;SDS011;10524;48.132;8.518;2023-07-16T07:16:54;3.10;;;1.70;;
20725;SDS011;10524;48.132;8.518;2023-07-16T07:19:20;3.90;;;1.50;;
20725;SDS011;10524;48.132;8.518;2023-07-16T07:21:46;5.10;;;2.05;;
20725;SDS011;10524;48.132;8.518;2023-07-16T07:24:12;3.47;;;1.35;;
20725;SDS011;10524;48.132;8.518;2023-07-16T07:26:37;2.75;;;1.38;;
20725;SDS011;10524;48.132;8.518;2023-07-16T07:29:03;2.38;;;1.38;;
20725;SDS011;10524;48.132;8.518;2023-07-16T07:31:29;2.17;;;1.45;;
20725;SDS011;10524;48.132;8.518;2023-07-16T07:33:54;2.90;;;1.30;;
20725;SDS011;10524;48.132;8.518;2023-07-16T07:36:22;3.33;;;1.48;;
20725;SDS011;10524;48.132;8.518;2023-07-16T07:38:48;2.67;;;1.30;;
20725;SDS011;10524;48.132;8.518;2023-07-16T07:41:13;3.78;;;1.50;;
20725;SDS011;10524;48.132;8.518;2023-07-16T07:43:39;3.00;;;1.52;;
20725;SDS011;10524;48.132;8.518;2023-07-16T07:46:05;3.08;;;1.48;;
20725;SDS011;10524;48.132;8.518;2023-07-16T07:48:31;3.63;;;1.70;;
20725;SDS011;10524;48.132;8.518;2023-07-16T07:50:57;3.08;;;1.65;;
20725;SDS011;10524;48.132;8.518;2023-07-16T07:53:22;2.92;;;1.40;;
20725;SDS011;10524;48.132;8.518;2023-07-16T07:55:48;4.65;;;1.50;;
20725;SDS011;10524;48.132;8.518;2023-07-16T07:58:14;4.00;;;1.45;;
20725;SDS011;10524;48.132;8.518;2023-07-16T08:00:39;3.63;;;1.52;;
20725;SDS011;10524;48.132;8.518;2023-07-16T08:03:05;4.18;;;1.67;;
20725;SDS011;10524;48.132;8.518;2023-07-16T08:05:32;7.40;;;2.03;;
20725;SDS011;10524;48.132;8.518;2023-07-16T08:07:59;4.15;;;1.67;;
20725;SDS011;10524;48.132;8.518;2023-07-16T08:10:24;5.38;;;2.05;;
20725;SDS011;10524;48.132;8.518;2023-07-16T08:12:50;4.80;;;1.60;;
20725;SDS011;10524;48.132;8.518;2023-07-16T08:15:17;5.43;;;2.08;;
20725;SDS011;10524;48.132;8.518;2023-07-16T08:17:43;3.75;;;1.50;;
20725;SDS011;10524;48.132;8.518;2023-07-16T08:20:10;4.00;;;1.58;;
20725;SDS011;10524;48.132;8.518;2023-07-16T08:22:36;2.40;;;1.33;;
20725;SDS011;10524;48.132;8.518;2023-07-16T08:25:02;3.90;;;1.55;;
20725;SDS011;10524;48.132;8.518;2023-07-16T08:27:28;3.55;;;1.52;;
20725;SDS011;10524;48.132;8.518;2023-07-16T08:29:55;2.65;;;1.35;;
20725;SDS011;10524;48.132;8.518;2023-07-16T08:32:20;3.70;;;1.52;;
20725;SDS011;10524;48.132;8.518;2023-07-16T08:34:46;3.65;;;1.48;;
20725;SDS011;10524;48.132;8.518;2023-07-16T08:37:12;4.38;;;1.58;;
20725;SDS011;10524;48.132;8.518;2023-07-16T08:39:38;2.35;;;1.27;;
20725;SDS011;10524;48.132;8.518;2023-07-16T08:42:04;3.83;;;1.38;;
20725;SDS011;10524;48.132;8.518;2023-07-16T08:44:30;4.10;;;1.60;;
20725;SDS011;10524;48.132;8.518;2023-07-16T08:46:57;2.78;;;1.30;;
20725;SDS011;10524;48.132;8.518;2023-07-16T08:49:23;3.65;;;1.42;;
20725;SDS011;10524;48.132;8.518;2023-07-16T08:51:50;3.53;;;1.40;;
20725;SDS011;10524;48.132;8.518;2023-07-16T08:54:19;4.85;;;1.30;;
20725;SDS011;10524;48.132;8.518;2023-07-16T08:56:46;4.43;;;1.58;;
20725;SDS011;10524;48.132;8.518;2023-07-16T08:59:16;3.13;;;1.33;;
20725;SDS011;10524;48.132;8.518;2023-07-16T09:01:42;3.10;;;1.50;;
20725;SDS011;10524;48.132;8.518;2023-07-16T09:04:08;2.78;;;1.40;;
20725;SDS011;10524;48.132;8.518;2023-07-16T09:06:34;3.33;;;1.45;;
20725;SDS011;10524;48.132;8.518;2023-07-16T09:08:59;3.13;;;1.45;;
20725;SDS011;10524;48.132;8.518;2023-07-16T09:11:25;2.97;;;1.40;;
20725;SDS011;10524;48.132;8.518;2023-07-16T09:13:52;4.05;;;1.55;;
20725;SDS011;10524;48.132;8.518;2023-07-16T09:16:18;2.72;;;1.33;;
20725;SDS011;10524;48.132;8.518;2023-07-16T09:18:44;2.35;;;1.20;;
20725;SDS011;10524;48.132;8.518;2023-07-16T09:21:10;4.40;;;1.80;;
20725;SDS011;10524;48.132;8.518;2023-07-16T09:23:36;6.03;;;1.40;;
20725;SDS011;10524;48.132;8.518;2023-07-16T09:26:02;3.75;;;1.30;;
20725;SDS011;10524;48.132;8.518;2023-07-16T09:28:30;5.15;;;1.30;;
20725;SDS011;10524;48.132;8.518;2023-07-16T09:31:02;3.53;;;1.35;;
20725;SDS011;10524;48.132;8.518;2023-07-16T09:33:32;3.33;;;1.58;;
20725;SDS011;10524;48.132;8.518;2023-07-16T09:35:57;3.70;;;1.48;;
20725;SDS011;10524;48.132;8.518;2023-07-16T09:38:23;2.30;;;1.20;;
20725;SDS011;10524;48.132;8.518;2023-07-16T09:40:49;4.70;;;1.73;;
20725;SDS011;10524;48.132;8.518;2023-07-16T09:43:17;3.55;;;1.52;;
20725;SDS011;10524;48.132;8.518;2023-07-16T09:45:43;4.13;;;1.45;;
20725;SDS011;10524;48.132;8.518;2023-07-16T09:48:09;2.70;;;1.40;;
20725;SDS011;10524;48.132;8.518;2023-07-16T09:50:35;4.43;;;1.33;;
20725;SDS011;10524;48.132;8.518;2023-07-16T09:53:01;4.22;;;1.40;;
20725;SDS011;10524;48.132;8.518;2023-07-16T09:55:32;3.35;;;1.38;;
20725;SDS011;10524;48.132;8.518;2023-07-16T09:57:59;3.45;;;1.30;;
20725;SDS011;10524;48.132;8.518;2023-07-16T10:00:27;2.97;;;1.35;;
20725;SDS011;10524;48.132;8.518;2023-07-16T10:02:53;3.05;;;1.30;;
20725;SDS011;10524;48.132;8.518;2023-07-16T10:05:27;2.33;;;1.30;;
20725;SDS011;10524;48.132;8.518;2023-07-16T10:07:57;3.10;;;1.40;;
20725;SDS011;10524;48.132;8.518;2023-07-16T10:10:38;2.42;;;1.10;;
20725;SDS011;10524;48.132;8.518;2023-07-16T10:13:10;3.28;;;1.48;;
20725;SDS011;10524;48.132;8.518;2023-07-16T10:15:38;3.45;;;1.35;;
20725;SDS011;10524;48.132;8.518;2023-07-16T10:18:07;4.13;;;1.20;;
20725;SDS011;10524;48.132;8.518;2023-07-16T10:20:36;3.03;;;1.50;;
20725;SDS011;10524;48.132;8.518;2023-07-16T10:23:11;3.08;;;1.35;;
20725;SDS011;10524;48.132;8.518;2023-07-16T10:25:38;2.72;;;1.30;;
20725;SDS011;10524;48.132;8.518;2023-07-16T10:28:04;2.25;;;1.20;;
20725;SDS011;10524;48.132;8.518;2023-07-16T10:30:30;3.28;;;1.40;;
20725;SDS011;10524;48.132;8.518;2023-07-16T10:32:56;3.20;;;1.33;;
20725;SDS011;10524;48.132;8.518;2023-07-16T10:35:22;3.10;;;1.35;;
20725;SDS011;10524;48.132;8.518;2023-07-16T10:37:47;4.38;;;1.38;;
20725;SDS011;10524;48.132;8.518;2023-07-16T10:40:13;2.22;;;1.17;;
20725;SDS011;10524;48.132;8.518;2023-07-16T10:42:43;2.58;;;1.33;;
20725;SDS011;10524;48.132;8.518;2023-07-16T10:45:12;2.20;;;1.20;;
20725;SDS011;10524;48.132;8.518;2023-07-16T10:47:54;3.38;;;1.63;;
20725;SDS011;10524;48.132;8.518;2023-07-16T10:50:20;3.15;;;1.40;;
20725;SDS011;10524;48.132;8.518;2023-07-16T10:52:50;2.97;;;1.30;;
20725;SDS011;10524;48.132;8.518;2023-07-16T10:55:17;2.65;;;1.27;;
20725;SDS011;10524;48.132;8.518;2023-07-16T10:57:43;3.60;;;1.50;;
20725;SDS011;10524;48.132;8.518;2023-07-16T11:00:09;3.28;;;1.33;;
20725;SDS011;10524;48.132;8.518;2023-07-16T11:02:38;2.95;;;1.38;;
20725;SDS011;10524;48.132;8.518;2023-07-16T11:05:11;2.92;;;1.30;;
20725;SDS011;10524;48.132;8.518;2023-07-16T11:07:42;2.65;;;1.10;;
20725;SDS011;10524;48.132;8.518;2023-07-16T11:10:09;5.70;;;1.98;;
20725;SDS011;10524;48.132;8.518;2023-07-16T11:12:35;3.00;;;1.40;;
20725;SDS011;10524;48.132;8.518;2023-07-16T11:15:00;2.40;;;1.20;;
20725;SDS011;10524;48.132;8.518;2023-07-16T11:17:27;2.92;;;1.40;;
20725;SDS011;10524;48.132;8.518;2023-07-16T11:19:53;4.28;;;1.63;;
20725;SDS011;10524;48.132;8.518;2023-07-16T11:22:23;3.30;;;1.48;;
20725;SDS011;10524;48.132;8.518;2023-07-16T11:24:52;8.90;;;2.15;;
20725;SDS011;10524;48.132;8.518;2023-07-16T11:27:20;1.77;;;1.45;;
20725;SDS011;10524;48.132;8.518;2023-07-16T11:29:51;2.55;;;1.50;;
20725;SDS011;10524;48.132;8.518;2023-07-16T11:35:14;4.40;;;1.48;;
20725;SDS011;10524;48.132;8.518;2023-07-16T11:37:42;2.97;;;1.27;;
20725;SDS011;10524;48.132;8.518;2023-07-16T11:40:09;2.97;;;1.40;;
20725;SDS011;10524;48.132;8.518;2023-07-16T11:42:36;2.08;;;1.30;;
20725;SDS011;10524;48.132;8.518;2023-07-16T11:45:04;2.35;;;1.50;;
20725;SDS011;10524;48.132;8.518;2023-07-16T11:47:30;2.30;;;1.25;;
20725;SDS011;10524;48.132;8.518;2023-07-16T11:49:56;2.88;;;1.30;;
20725;SDS011;10524;48.132;8.518;2023-07-16T11:52:26;2.72;;;1.33;;
20725;SDS011;10524;48.132;8.518;2023-07-16T11:54:53;3.33;;;1.38;;
20725;SDS011;10524;48.132;8.518;2023-07-16T11:57:21;4.13;;;1.33;;
20725;SDS011;10524;48.132;8.518;2023-07-16T11:59:48;2.75;;;1.42;;
20725;SDS011;10524;48.132;8.518;2023-07-16T12:02:14;2.28;;;1.40;;
20725;SDS011;10524;48.132;8.518;2023-07-16T12:04:40;1.92;;;1.40;;
20725;SDS011;10524;48.132;8.518;2023-07-16T12:07:06;2.90;;;1.42;;
20725;SDS011;10524;48.132;8.518;2023-07-16T12:09:33;2.72;;;1.33;;
20725;SDS011;10524;48.132;8.518;2023-07-16T12:11:59;1.35;;;1.10;;
20725;SDS011;10524;48.132;8.518;2023-07-16T12:14:26;3.08;;;1.30;;
20725;SDS011;10524;48.132;8.518;2023-07-16T12:16:59;2.47;;;1.10;;
20725;SDS011;10524;48.132;8.518;2023-07-16T12:19:31;2.70;;;1.20;;
20725;SDS011;10524;48.132;8.518;2023-07-16T12:21:59;2.58;;;1.30;;
20725;SDS011;10524;48.132;8.518;2023-07-16T12:24:25;1.70;;;1.30;;
20725;SDS011;10524;48.132;8.518;2023-07-16T12:26:50;1.98;;;1.27;;
20725;SDS011;10524;48.132;8.518;2023-07-16T12:29:16;3.33;;;1.50;;
20725;SDS011;10524;48.132;8.518;2023-07-16T12:31:42;2.63;;;1.45;;
20725;SDS011;10524;48.132;8.518;2023-07-16T12:34:08;2.25;;;1.30;;
20725;SDS011;10524;48.132;8.518;2023-07-16T12:36:34;2.95;;;1.40;;
20725;SDS011;10524;48.132;8.518;2023-07-16T12:38:59;2.60;;;1.60;;
20725;SDS011;10524;48.132;8.518;2023-07-16T12:41:25;1.50;;;1.20;;
20725;SDS011;10524;48.132;8.518;2023-07-16T12:43:51;2.17;;;1.40;;
20725;SDS011;10524;48.132;8.518;2023-07-16T12:46:17;2.38;;;1.20;;
20725;SDS011;10524;48.132;8.518;2023-07-16T12:48:42;2.60;;;1.40;;
20725;SDS011;10524;48.132;8.518;2023-07-16T12:51:09;1.75;;;1.13;;
20725;SDS011;10524;48.132;8.518;2023-07-16T12:53:34;2.65;;;1.20;;
20725;SDS011;10524;48.132;8.518;2023-07-16T12:56:00;3.28;;;1.33;;
20725;SDS011;10524;48.132;8.518;2023-07-16T12:58:26;3.17;;;1.50;;
20725;SDS011;10524;48.132;8.518;2023-07-16T13:00:51;2.25;;;1.30;;
20725;SDS011;10524;48.132;8.518;2023-07-16T13:03:17;2.88;;;1.40;;
20725;SDS011;10524;48.132;8.518;2023-07-16T13:05:43;2.67;;;1.45;;
20725;SDS011;10524;48.132;8.518;2023-07-16T13:08:10;2.25;;;1.52;;
20725;SDS011;10524;48.132;8.518;2023-07-16T13:10:35;3.83;;;1.60;;
20725;SDS011;10524;48.132;8.518;2023-07-16T13:13:01;2.33;;;1.45;;
20725;SDS011;10524;48.132;8.518;2023-07-16T13:15:28;2.47;;;1.25;;
20725;SDS011;10524;48.132;8.518;2023-07-16T13:17:55;2.08;;;1.23;;
20725;SDS011;10524;48.132;8.518;2023-07-16T13:20:20;2.28;;;1.50;;
20725;SDS011;10524;48.132;8.518;2023-07-16T13:22:47;3.97;;;1.35;;
20725;SDS011;10524;48.132;8.518;2023-07-16T13:25:13;5.35;;;1.83;;
20725;SDS011;10524;48.132;8.518;2023-07-16T13:27:38;5.43;;;1.48;;
20725;SDS011;10524;48.132;8.518;2023-07-16T13:30:04;2.50;;;1.30;;
20725;SDS011;10524;48.132;8.518;2023-07-16T13:32:31;3.13;;;1.40;;
20725;SDS011;10524;48.132;8.518;2023-07-16T13:34:56;2.38;;;1.30;;
20725;SDS011;10524;48.132;8.518;2023-07-16T13:37:22;3.33;;;1.40;;
20725;SDS011;10524;48.132;8.518;2023-07-16T13:39:48;3.22;;;1.65;;
20725;SDS011;10524;48.132;8.518;2023-07-16T13:42:14;2.83;;;1.50;;
20725;SDS011;10524;48.132;8.518;2023-07-16T13:44:39;2.08;;;1.50;;
20725;SDS011;10524;48.132;8.518;2023-07-16T13:47:05;2.40;;;1.40;;
20725;SDS011;10524;48.132;8.518;2023-07-16T13:49:31;3.33;;;1.40;;
20725;SDS011;10524;48.132;8.518;2023-07-16T13:51:57;2.40;;;1.38;;
20725;SDS011;10524;48.132;8.518;2023-07-16T13:54:23;5.10;;;2.78;;
20725;SDS011;10524;48.132;8.518;2023-07-16T13:56:49;2.60;;;1.60;;
20725;SDS011;10524;48.132;8.518;2023-07-16T13:59:15;2.33;;;1.52;;
20725;SDS011;10524;48.132;8.518;2023-07-16T14:01:41;3.45;;;1.50;;
20725;SDS011;10524;48.132;8.518;2023-07-16T14:04:07;3.60;;;1.85;;
20725;SDS011;10524;48.132;8.518;2023-07-16T14:06:33;2.92;;;1.65;;
20725;SDS011;10524;48.132;8.518;2023-07-16T14:08:59;2.53;;;1.42;;
20725;SDS011;10524;48.132;8.518;2023-07-16T14:11:25;3.05;;;1.50;;
20725;SDS011;10524;48.132;8.518;2023-07-16T14:13:51;3.75;;;1.60;;
20725;SDS011;10524;48.132;8.518;2023-07-16T14:16:18;2.33;;;1.50;;
20725;SDS011;10524;48.132;8.518;2023-07-16T14:18:44;3.03;;;1.52;;
20725;SDS011;10524;48.132;8.518;2023-07-16T14:21:10;3.35;;;1.58;;
20725;SDS011;10524;48.132;8.518;2023-07-16T14:23:36;2.35;;;1.70;;
20725;SDS011;10524;48.132;8.518;2023-07-16T14:26:02;2.92;;;1.70;;
20725;SDS011;10524;48.132;8.518;2023-07-16T14:28:28;4.03;;;1.83;;
20725;SDS011;10524;48.132;8.518;2023-07-16T14:30:54;2.65;;;1.50;;
20725;SDS011;10524;48.132;8.518;2023-07-16T14:33:20;2.95;;;1.48;;
20725;SDS011;10524;48.132;8.518;2023-07-16T14:35:47;3.67;;;1.70;;
20725;SDS011;10524;48.132;8.518;2023-07-16T14:38:12;3.17;;;1.60;;
20725;SDS011;10524;48.132;8.518;2023-07-16T14:40:38;2.00;;;1.40;;
20725;SDS011;10524;48.132;8.518;2023-07-16T14:43:04;1.90;;;1.40;;
20725;SDS011;10524;48.132;8.518;2023-07-16T14:45:36;3.00;;;1.50;;
20725;SDS011;10524;48.132;8.518;2023-07-16T14:48:02;3.38;;;2.20;;
20725;SDS011;10524;48.132;8.518;2023-07-16T14:50:29;3.17;;;1.92;;
20725;SDS011;10524;48.132;8.518;2023-07-16T14:52:55;2.28;;;1.27;;
20725;SDS011;10524;48.132;8.518;2023-07-16T14:55:21;3.25;;;1.80;;